sensor_id;sensor_type;location;lat;lon;timestamp;pressure;altitude;pressure_sealevel;temperature;humidity
79645;BME280;69117;47.148;18.954;2023-06-14T00:02:29;100298.81;;;11.13;48.42
79645;BME280;69117;47.148;18.954;2023-06-14T00:05:31;100300.41;;;11.23;48.18
79645;BME280;69117;47.148;18.954;2023-06-14T00:08:35;100307.25;;;11.16;48.17
79645;BME280;69117;47.148;18.954;2023-06-14T00:11:36;100311.50;;;11.09;48.57
79645;BME280;69117;47.148;18.954;2023-06-14T00:14:38;100308.09;;;10.99;48.46
79645;BME280;69117;47.148;18.954;2023-06-14T00:17:40;100311.97;;;11.05;47.80
79645;BME280;69117;47.148;18.954;2023-06-14T00:20:41;100315.19;;;10.98;47.89
79645;BME280;69117;47.148;18.954;2023-06-14T00:23:44;100315.31;;;10.97;48.31
79645;BME280;69117;47.148;18.954;2023-06-14T00:26:46;100321.66;;;10.86;48.39
79645;BME280;69117;47.148;18.954;2023-06-14T00:29:48;100308.34;;;10.78;48.19
79645;BME280;69117;47.148;18.954;2023-06-14T00:32:50;100317.84;;;10.61;48.12
79645;BME280;69117;47.148;18.954;2023-06-14T00:35:53;100327.34;;;10.54;47.81
79645;BME280;69117;47.148;18.954;2023-06-14T00:38:57;100320.78;;;10.58;47.72
79645;BME280;69117;47.148;18.954;2023-06-14T00:41:59;100325.13;;;10.59;48.04
79645;BME280;69117;47.148;18.954;2023-06-14T00:45:01;100323.19;;;10.51;48.22
79645;BME280;69117;47.148;18.954;2023-06-14T00:48:03;100312.19;;;10.56;47.60
79645;BME280;69117;47.148;18.954;2023-06-14T00:51:08;100319.13;;;10.57;48.10
79645;BME280;69117;47.148;18.954;2023-06-14T00:54:09;100319.53;;;10.62;47.95
79645;BME280;69117;47.148;18.954;2023-06-14T00:57:12;100322.03;;;10.64;48.05
79645;BME280;69117;47.148;18.954;2023-06-14T01:00:14;100313.19;;;10.45;48.05
79645;BME280;69117;47.148;18.954;2023-06-14T01:03:16;100322.41;;;10.41;47.93
79645;BME280;69117;47.148;18.954;2023-06-14T01:06:40;100327.09;;;10.47;47.79
79645;BME280;69117;47.148;18.954;2023-06-14T01:13:21;100309.91;;;10.34;48.07
79645;BME280;69117;47.148;18.954;2023-06-14T01:16:25;100328.22;;;10.45;47.78
79645;BME280;69117;47.148;18.954;2023-06-14T01:19:27;100310.88;;;10.32;47.90
79645;BME280;69117;47.148;18.954;2023-06-14T01:22:30;100321.56;;;10.31;48.12
79645;BME280;69117;47.148;18.954;2023-06-14T01:25:31;100332.69;;;10.25;47.63
79645;BME280;69117;47.148;18.954;2023-06-14T01:28:34;100325.50;;;10.17;47.65
79645;BME280;69117;47.148;18.954;2023-06-14T01:31:36;100329.41;;;10.03;47.88
79645;BME280;69117;47.148;18.954;2023-06-14T01:34:43;100321.78;;;9.91;47.75
79645;BME280;69117;47.148;18.954;2023-06-14T01:37:47;100325.94;;;9.93;47.30
79645;BME280;69117;47.148;18.954;2023-06-14T01:40:49;100322.84;;;10.07;47.40
79645;BME280;69117;47.148;18.954;2023-06-14T01:43:52;100314.94;;;10.07;47.36
79645;BME280;69117;47.148;18.954;2023-06-14T01:46:54;100329.09;;;10.16;47.58
79645;BME280;69117;47.148;18.954;2023-06-14T01:49:56;100322.97;;;10.16;47.32
79645;BME280;69117;47.148;18.954;2023-06-14T01:52:58;100328.97;;;10.18;47.53
79645;BME280;69117;47.148;18.954;2023-06-14T01:55:59;100325.91;;;10.13;47.68
79645;BME280;69117;47.148;18.954;2023-06-14T01:59:02;100329.38;;;10.13;47.54
79645;BME280;69117;47.148;18.954;2023-06-14T02:02:04;100334.25;;;9.98;47.42
79645;BME280;69117;47.148;18.954;2023-06-14T02:05:06;100320.66;;;9.93;47.30
79645;BME280;69117;47.148;18.954;2023-06-14T02:08:09;100332.75;;;9.96;47.21
79645;BME280;69117;47.148;18.954;2023-06-14T02:11:10;100325.38;;;9.80;47.37
79645;BME280;69117;47.148;18.954;2023-06-14T02:14:12;100322.88;;;9.88;47.24
79645;BME280;69117;47.148;18.954;2023-06-14T02:17:14;100327.47;;;9.86;47.31
79645;BME280;69117;47.148;18.954;2023-06-14T02:20:16;100329.72;;;9.81;47.48
79645;BME280;69117;47.148;18.954;2023-06-14T02:23:18;100324.56;;;9.79;47.42
79645;BME280;69117;47.148;18.954;2023-06-14T02:26:20;100331.38;;;9.72;47.43
79645;BME280;69117;47.148;18.954;2023-06-14T02:29:23;100325.25;;;9.62;47.09
79645;BME280;69117;47.148;18.954;2023-06-14T02:32:25;100322.78;;;9.60;47.16
79645;BME280;69117;47.148;18.954;2023-06-14T02:35:30;100329.97;;;9.49;47.20
79645;BME280;69117;47.148;18.954;2023-06-14T02:38:31;100325.81;;;9.46;46.88
79645;BME280;69117;47.148;18.954;2023-06-14T02:41:33;100323.59;;;9.42;47.17
79645;BME280;69117;47.148;18.954;2023-06-14T02:44:35;100342.06;;;9.51;47.28
79645;BME280;69117;47.148;18.954;2023-06-14T02:47:37;100316.78;;;9.39;47.17
79645;BME280;69117;47.148;18.954;2023-06-14T02:50:39;100336.78;;;9.51;47.17
79645;BME280;69117;47.148;18.954;2023-06-14T02:53:41;100331.63;;;9.50;47.30
79645;BME280;69117;47.148;18.954;2023-06-14T02:56:43;100334.69;;;9.55;47.64
79645;BME280;69117;47.148;18.954;2023-06-14T02:59:45;100327.91;;;9.52;47.50
79645;BME280;69117;47.148;18.954;2023-06-14T03:02:46;100320.97;;;9.51;47.58
79645;BME280;69117;47.148;18.954;2023-06-14T03:05:49;100333.72;;;9.46;47.78
79645;BME280;69117;47.148;18.954;2023-06-14T03:08:51;100347.44;;;9.50;47.88
79645;BME280;69117;47.148;18.954;2023-06-14T03:11:56;100340.81;;;9.46;47.41
79645;BME280;69117;47.148;18.954;2023-06-14T03:14:58;100347.44;;;9.50;47.54
79645;BME280;69117;47.148;18.954;2023-06-14T03:18:04;100340.69;;;9.67;47.45
79645;BME280;69117;47.148;18.954;2023-06-14T03:21:05;100337.34;;;9.74;47.71
79645;BME280;69117;47.148;18.954;2023-06-14T03:24:10;100344.28;;;9.85;47.76
79645;BME280;69117;47.148;18.954;2023-06-14T03:27:12;100345.38;;;9.92;47.67
79645;BME280;69117;47.148;18.954;2023-06-14T03:30:14;100348.84;;;10.02;47.67
79645;BME280;69117;47.148;18.954;2023-06-14T03:33:16;100343.13;;;10.17;47.64
79645;BME280;69117;47.148;18.954;2023-06-14T03:36:18;100348.44;;;10.26;47.83
79645;BME280;69117;47.148;18.954;2023-06-14T03:39:20;100352.31;;;10.32;48.01
79645;BME280;69117;47.148;18.954;2023-06-14T03:42:22;100360.75;;;10.45;48.23
79645;BME280;69117;47.148;18.954;2023-06-14T03:45:23;100356.41;;;10.54;48.10
79645;BME280;69117;47.148;18.954;2023-06-14T03:48:25;100355.38;;;10.65;48.28
79645;BME280;69117;47.148;18.954;2023-06-14T03:51:27;100351.88;;;10.74;48.31
79645;BME280;69117;47.148;18.954;2023-06-14T03:54:29;100359.19;;;10.90;48.34
79645;BME280;69117;47.148;18.954;2023-06-14T03:57:36;100357.03;;;11.03;48.25
79645;BME280;69117;47.148;18.954;2023-06-14T04:00:38;100370.88;;;11.15;48.60
79645;BME280;69117;47.148;18.954;2023-06-14T04:03:40;100370.22;;;11.31;48.61
79645;BME280;69117;47.148;18.954;2023-06-14T04:06:42;100368.72;;;11.46;48.39
79645;BME280;69117;47.148;18.954;2023-06-14T04:09:44;100369.75;;;11.63;48.58
79645;BME280;69117;47.148;18.954;2023-06-14T04:12:45;100373.06;;;11.65;48.53
79645;BME280;69117;47.148;18.954;2023-06-14T04:15:47;100387.53;;;11.88;48.54
79645;BME280;69117;47.148;18.954;2023-06-14T04:18:49;100378.53;;;11.99;48.68
79645;BME280;69117;47.148;18.954;2023-06-14T04:21:53;100374.59;;;12.03;48.70
79645;BME280;69117;47.148;18.954;2023-06-14T04:24:54;100374.25;;;12.24;48.56
79645;BME280;69117;47.148;18.954;2023-06-14T04:28:06;100378.69;;;12.42;48.72
79645;BME280;69117;47.148;18.954;2023-06-14T04:31:10;100380.28;;;12.60;48.67
79645;BME280;69117;47.148;18.954;2023-06-14T04:34:13;100381.34;;;12.76;48.82
79645;BME280;69117;47.148;18.954;2023-06-14T04:37:18;100392.88;;;12.93;48.97
79645;BME280;69117;47.148;18.954;2023-06-14T04:40:20;100396.22;;;13.03;48.79
79645;BME280;69117;47.148;18.954;2023-06-14T04:43:21;100390.31;;;13.17;48.86
79645;BME280;69117;47.148;18.954;2023-06-14T04:46:29;100379.84;;;13.07;48.63
79645;BME280;69117;47.148;18.954;2023-06-14T04:49:31;100386.25;;;13.31;48.77
79645;BME280;69117;47.148;18.954;2023-06-14T04:52:34;100385.47;;;13.55;48.73
79645;BME280;69117;47.148;18.954;2023-06-14T04:55:37;100381.72;;;13.74;48.88
79645;BME280;69117;47.148;18.954;2023-06-14T04:58:38;100376.25;;;13.84;49.03
79645;BME280;69117;47.148;18.954;2023-06-14T05:01:40;100393.00;;;14.01;49.14
79645;BME280;69117;47.148;18.954;2023-06-14T05:04:42;100387.69;;;14.17;48.95
79645;BME280;69117;47.148;18.954;2023-06-14T05:07:44;100395.97;;;14.38;49.13
79645;BME280;69117;47.148;18.954;2023-06-14T05:10:45;100399.47;;;14.39;49.16
79645;BME280;69117;47.148;18.954;2023-06-14T05:13:47;100397.28;;;14.51;49.07
79645;BME280;69117;47.148;18.954;2023-06-14T05:16:49;100400.44;;;14.71;49.01
79645;BME280;69117;47.148;18.954;2023-06-14T05:19:50;100403.53;;;14.91;49.14
79645;BME280;69117;47.148;18.954;2023-06-14T05:22:53;100406.06;;;14.84;49.23
79645;BME280;69117;47.148;18.954;2023-06-14T05:25:55;100395.97;;;14.71;49.36
79645;BME280;69117;47.148;18.954;2023-06-14T05:28:58;100408.47;;;15.10;49.33
79645;BME280;69117;47.148;18.954;2023-06-14T05:32:01;100408.13;;;15.13;49.58
79645;BME280;69117;47.148;18.954;2023-06-14T05:35:03;100399.72;;;15.32;49.30
79645;BME280;69117;47.148;18.954;2023-06-14T05:38:05;100409.34;;;15.65;49.40
79645;BME280;69117;47.148;18.954;2023-06-14T05:41:09;100406.38;;;15.60;49.73
79645;BME280;69117;47.148;18.954;2023-06-14T05:44:10;100411.06;;;15.89;49.67
79645;BME280;69117;47.148;18.954;2023-06-14T05:47:12;100412.53;;;15.60;49.45
79645;BME280;69117;47.148;18.954;2023-06-14T05:50:14;100416.06;;;16.07;49.59
79645;BME280;69117;47.148;18.954;2023-06-14T05:53:16;100420.00;;;16.19;49.41
79645;BME280;69117;47.148;18.954;2023-06-14T05:56:18;100423.38;;;16.27;49.61
79645;BME280;69117;47.148;18.954;2023-06-14T05:59:20;100426.50;;;16.69;49.34
79645;BME280;69117;47.148;18.954;2023-06-14T06:02:21;100425.66;;;16.77;49.66
79645;BME280;69117;47.148;18.954;2023-06-14T06:05:23;100423.84;;;16.69;49.81
79645;BME280;69117;47.148;18.954;2023-06-14T06:08:29;100421.13;;;16.92;49.70
79645;BME280;69117;47.148;18.954;2023-06-14T06:11:31;100421.56;;;17.25;49.98
79645;BME280;69117;47.148;18.954;2023-06-14T06:14:49;100420.69;;;16.88;50.33
79645;BME280;69117;47.148;18.954;2023-06-14T06:17:50;100417.22;;;17.24;49.70
79645;BME280;69117;47.148;18.954;2023-06-14T06:20:57;100419.88;;;17.75;49.97
79645;BME280;69117;47.148;18.954;2023-06-14T06:23:58;100422.59;;;17.97;50.46
79645;BME280;69117;47.148;18.954;2023-06-14T06:27:00;100411.22;;;18.38;50.93
79645;BME280;69117;47.148;18.954;2023-06-14T06:30:02;100424.75;;;18.58;51.06
79645;BME280;69117;47.148;18.954;2023-06-14T06:33:03;100413.03;;;18.59;50.91
79645;BME280;69117;47.148;18.954;2023-06-14T06:36:05;100419.69;;;18.69;51.79
79645;BME280;69117;47.148;18.954;2023-06-14T06:39:07;100426.16;;;18.82;51.18
79645;BME280;69117;47.148;18.954;2023-06-14T06:42:12;100434.09;;;18.68;51.55
79645;BME280;69117;47.148;18.954;2023-06-14T06:45:13;100435.13;;;18.95;51.57
79645;BME280;69117;47.148;18.954;2023-06-14T06:48:15;100427.38;;;18.51;51.19
79645;BME280;69117;47.148;18.954;2023-06-14T06:51:18;100438.53;;;18.33;51.22
79645;BME280;69117;47.148;18.954;2023-06-14T06:54:19;100433.19;;;18.33;50.66
79645;BME280;69117;47.148;18.954;2023-06-14T06:57:21;100428.34;;;18.71;50.80
79645;BME280;69117;47.148;18.954;2023-06-14T07:00:26;100437.91;;;19.15;51.05
79645;BME280;69117;47.148;18.954;2023-06-14T07:03:29;100423.63;;;19.56;51.62
79645;BME280;69117;47.148;18.954;2023-06-14T07:06:31;100434.50;;;19.41;51.23
79645;BME280;69117;47.148;18.954;2023-06-14T07:09:33;100426.94;;;19.52;51.44
79645;BME280;69117;47.148;18.954;2023-06-14T07:12:35;100425.53;;;19.14;51.65
79645;BME280;69117;47.148;18.954;2023-06-14T07:15:40;100428.81;;;18.75;51.62
79645;BME280;69117;47.148;18.954;2023-06-14T07:18:42;100437.31;;;19.20;50.93
79645;BME280;69117;47.148;18.954;2023-06-14T07:21:44;100430.59;;;19.37;50.91
79645;BME280;69117;47.148;18.954;2023-06-14T07:24:45;100431.63;;;18.95;51.56
79645;BME280;69117;47.148;18.954;2023-06-14T07:27:48;100429.38;;;19.40;51.92
79645;BME280;69117;47.148;18.954;2023-06-14T07:30:49;100436.53;;;18.91;51.46
79645;BME280;69117;47.148;18.954;2023-06-14T07:33:51;100440.34;;;19.58;51.78
79645;BME280;69117;47.148;18.954;2023-06-14T07:36:53;100442.34;;;19.91;52.76
79645;BME280;69117;47.148;18.954;2023-06-14T07:39:55;100438.03;;;20.17;72.93
79645;BME280;69117;47.148;18.954;2023-06-14T07:42:57;100439.66;;;19.98;73.71
79645;BME280;69117;47.148;18.954;2023-06-14T07:45:59;100445.03;;;20.11;69.94
79645;BME280;69117;47.148;18.954;2023-06-14T07:49:08;100435.34;;;20.36;71.16
79645;BME280;69117;47.148;18.954;2023-06-14T07:52:10;100444.44;;;20.69;72.49
79645;BME280;69117;47.148;18.954;2023-06-14T07:55:12;100443.34;;;20.96;68.79
79645;BME280;69117;47.148;18.954;2023-06-14T07:58:16;100457.19;;;20.93;69.19
79645;BME280;69117;47.148;18.954;2023-06-14T08:01:17;100456.41;;;20.66;68.50
79645;BME280;69117;47.148;18.954;2023-06-14T08:04:21;100451.16;;;21.24;66.96
79645;BME280;69117;47.148;18.954;2023-06-14T08:07:23;100451.63;;;21.01;68.67
79645;BME280;69117;47.148;18.954;2023-06-14T08:10:24;100458.88;;;20.94;66.88
79645;BME280;69117;47.148;18.954;2023-06-14T08:13:26;100460.16;;;20.65;67.18
79645;BME280;69117;47.148;18.954;2023-06-14T08:16:28;100454.94;;;20.50;70.53
79645;BME280;69117;47.148;18.954;2023-06-14T08:19:29;100461.75;;;20.26;68.71
79645;BME280;69117;47.148;18.954;2023-06-14T08:22:31;100462.19;;;20.36;70.53
79645;BME280;69117;47.148;18.954;2023-06-14T08:25:35;100461.56;;;20.48;68.80
79645;BME280;69117;47.148;18.954;2023-06-14T08:28:37;100460.97;;;20.46;70.81
79645;BME280;69117;47.148;18.954;2023-06-14T08:31:38;100466.75;;;20.63;67.43
79645;BME280;69117;47.148;18.954;2023-06-14T08:34:40;100460.34;;;20.37;67.31
79645;BME280;69117;47.148;18.954;2023-06-14T08:37:48;100466.91;;;21.01;66.42
79645;BME280;69117;47.148;18.954;2023-06-14T08:40:55;100463.59;;;20.99;68.40
79645;BME280;69117;47.148;18.954;2023-06-14T08:43:58;100465.66;;;21.03;65.00
79645;BME280;69117;47.148;18.954;2023-06-14T08:47:00;100468.97;;;21.12;65.51
79645;BME280;69117;47.148;18.954;2023-06-14T08:50:03;100480.28;;;21.27;64.69
79645;BME280;69117;47.148;18.954;2023-06-14T08:53:21;100481.03;;;21.93;64.14
79645;BME280;69117;47.148;18.954;2023-06-14T08:56:28;100480.09;;;22.44;64.07
79645;BME280;69117;47.148;18.954;2023-06-14T08:59:30;100478.31;;;22.00;62.50
79645;BME280;69117;47.148;18.954;2023-06-14T09:02:35;100479.59;;;21.97;62.93
79645;BME280;69117;47.148;18.954;2023-06-14T09:05:37;100481.69;;;23.02;58.07
79645;BME280;69117;47.148;18.954;2023-06-14T09:08:42;100473.22;;;22.98;57.13
79645;BME280;69117;47.148;18.954;2023-06-14T09:11:45;100486.69;;;23.17;53.60
79645;BME280;69117;47.148;18.954;2023-06-14T09:14:47;100481.31;;;23.35;58.00
79645;BME280;69117;47.148;18.954;2023-06-14T09:17:50;100480.63;;;23.76;52.40
79645;BME280;69117;47.148;18.954;2023-06-14T09:20:53;100473.13;;;23.79;54.36
79645;BME280;69117;47.148;18.954;2023-06-14T09:23:54;100484.75;;;23.79;50.39
79645;BME280;69117;47.148;18.954;2023-06-14T09:26:56;100470.84;;;23.45;52.93
79645;BME280;69117;47.148;18.954;2023-06-14T09:29:59;100476.81;;;23.29;51.07
79645;BME280;69117;47.148;18.954;2023-06-14T09:33:01;100475.56;;;23.31;53.89
79645;BME280;69117;47.148;18.954;2023-06-14T09:36:04;100457.41;;;23.20;48.91
79645;BME280;69117;47.148;18.954;2023-06-14T09:39:06;100456.06;;;24.08;51.25
79645;BME280;69117;47.148;18.954;2023-06-14T09:42:19;100453.22;;;24.33;45.69
79645;BME280;69117;47.148;18.954;2023-06-14T09:45:20;100456.78;;;24.04;46.61
79645;BME280;69117;47.148;18.954;2023-06-14T09:48:23;100454.31;;;24.56;44.15
79645;BME280;69117;47.148;18.954;2023-06-14T09:51:26;100456.34;;;24.18;44.80
79645;BME280;69117;47.148;18.954;2023-06-14T09:54:35;100458.44;;;24.82;44.47
79645;BME280;69117;47.148;18.954;2023-06-14T09:57:41;100458.19;;;25.19;37.91
79645;BME280;69117;47.148;18.954;2023-06-14T10:00:45;100453.88;;;25.46;33.44
79645;BME280;69117;47.148;18.954;2023-06-14T10:03:50;100451.44;;;25.62;33.48
79645;BME280;69117;47.148;18.954;2023-06-14T10:07:09;100446.34;;;25.48;31.72
79645;BME280;69117;47.148;18.954;2023-06-14T10:10:11;100459.19;;;25.98;33.10
79645;BME280;69117;47.148;18.954;2023-06-14T10:13:14;100452.28;;;26.53;35.49
79645;BME280;69117;47.148;18.954;2023-06-14T10:16:21;100445.97;;;25.85;30.15
79645;BME280;69117;47.148;18.954;2023-06-14T10:19:33;100458.72;;;25.32;32.27
79645;BME280;69117;47.148;18.954;2023-06-14T10:22:43;100446.44;;;25.13;32.53
79645;BME280;69117;47.148;18.954;2023-06-14T10:25:50;100452.41;;;25.03;35.06
79645;BME280;69117;47.148;18.954;2023-06-14T10:29:09;100448.09;;;24.90;34.16
79645;BME280;69117;47.148;18.954;2023-06-14T10:32:11;100450.06;;;24.83;34.61
79645;BME280;69117;47.148;18.954;2023-06-14T10:35:16;100445.44;;;26.50;36.38
79645;BME280;69117;47.148;18.954;2023-06-14T10:38:30;100444.59;;;25.42;35.79
79645;BME280;69117;47.148;18.954;2023-06-14T10:41:36;100443.66;;;26.95;36.02
79645;BME280;69117;47.148;18.954;2023-06-14T10:47:43;100429.66;;;27.47;34.46
79645;BME280;69117;47.148;18.954;2023-06-14T10:50:47;100433.50;;;26.85;33.33
79645;BME280;69117;47.148;18.954;2023-06-14T10:53:50;100431.97;;;26.56;35.69
79645;BME280;69117;47.148;18.954;2023-06-14T10:56:53;100434.94;;;26.37;34.92
79645;BME280;69117;47.148;18.954;2023-06-14T10:59:56;100428.84;;;26.47;35.30
79645;BME280;69117;47.148;18.954;2023-06-14T11:06:15;100430.31;;;26.38;32.66
79645;BME280;69117;47.148;18.954;2023-06-14T11:09:58;100429.94;;;26.63;33.22
79645;BME280;69117;47.148;18.954;2023-06-14T11:13:07;100422.69;;;27.51;36.64
79645;BME280;69117;47.148;18.954;2023-06-14T11:16:14;100416.22;;;27.57;33.82
79645;BME280;69117;47.148;18.954;2023-06-14T11:19:17;100423.13;;;26.99;31.38
79645;BME280;69117;47.148;18.954;2023-06-14T11:22:19;100424.69;;;27.17;32.69
79645;BME280;69117;47.148;18.954;2023-06-14T11:25:20;100428.81;;;27.42;31.20
79645;BME280;69117;47.148;18.954;2023-06-14T11:28:22;100418.50;;;27.44;29.91
79645;BME280;69117;47.148;18.954;2023-06-14T11:31:26;100420.81;;;27.30;29.85
79645;BME280;69117;47.148;18.954;2023-06-14T11:34:28;100410.88;;;27.40;31.43
79645;BME280;69117;47.148;18.954;2023-06-14T11:37:30;100419.47;;;27.59;31.85
79645;BME280;69117;47.148;18.954;2023-06-14T11:40:32;100420.34;;;28.19;31.48
79645;BME280;69117;47.148;18.954;2023-06-14T11:43:34;100415.13;;;27.58;32.12
79645;BME280;69117;47.148;18.954;2023-06-14T11:46:36;100415.22;;;26.98;30.54
79645;BME280;69117;47.148;18.954;2023-06-14T11:49:38;100417.72;;;27.21;32.62
79645;BME280;69117;47.148;18.954;2023-06-14T11:52:40;100413.69;;;26.63;33.87
79645;BME280;69117;47.148;18.954;2023-06-14T11:55:42;100416.06;;;25.80;31.05
79645;BME280;69117;47.148;18.954;2023-06-14T11:58:46;100406.69;;;27.55;30.54
79645;BME280;69117;47.148;18.954;2023-06-14T12:01:48;100409.28;;;27.94;27.94
79645;BME280;69117;47.148;18.954;2023-06-14T12:04:50;100406.63;;;29.36;29.55
79645;BME280;69117;47.148;18.954;2023-06-14T12:07:58;100414.66;;;27.89;29.57
79645;BME280;69117;47.148;18.954;2023-06-14T12:11:02;100414.03;;;27.10;31.83
79645;BME280;69117;47.148;18.954;2023-06-14T12:14:05;100418.78;;;27.20;28.42
79645;BME280;69117;47.148;18.954;2023-06-14T12:17:07;100415.47;;;28.53;30.63
79645;BME280;69117;47.148;18.954;2023-06-14T12:20:10;100412.69;;;28.11;28.41
79645;BME280;69117;47.148;18.954;2023-06-14T12:23:12;100415.81;;;27.98;29.03
79645;BME280;69117;47.148;18.954;2023-06-14T12:26:16;100407.44;;;29.47;28.67
79645;BME280;69117;47.148;18.954;2023-06-14T12:29:19;100403.47;;;28.97;31.24
79645;BME280;69117;47.148;18.954;2023-06-14T12:32:21;100416.34;;;28.64;28.12
79645;BME280;69117;47.148;18.954;2023-06-14T12:35:26;100410.13;;;29.27;28.77
79645;BME280;69117;47.148;18.954;2023-06-14T12:38:28;100400.59;;;28.71;28.87
79645;BME280;69117;47.148;18.954;2023-06-14T12:41:29;100398.28;;;31.36;25.80
79645;BME280;69117;47.148;18.954;2023-06-14T12:44:31;100400.47;;;32.12;25.91
79645;BME280;69117;47.148;18.954;2023-06-14T12:47:35;100405.25;;;30.92;24.05
79645;BME280;69117;47.148;18.954;2023-06-14T12:50:37;100403.31;;;31.63;27.85
79645;BME280;69117;47.148;18.954;2023-06-14T12:53:39;100398.25;;;30.66;28.87
79645;BME280;69117;47.148;18.954;2023-06-14T12:56:41;100388.53;;;31.14;26.72
79645;BME280;69117;47.148;18.954;2023-06-14T12:59:44;100388.03;;;31.02;23.72
79645;BME280;69117;47.148;18.954;2023-06-14T13:02:47;100398.22;;;30.71;28.90
79645;BME280;69117;47.148;18.954;2023-06-14T13:05:49;100396.13;;;30.11;26.68
79645;BME280;69117;47.148;18.954;2023-06-14T13:08:50;100385.09;;;30.93;27.70
79645;BME280;69117;47.148;18.954;2023-06-14T13:11:52;100396.66;;;30.34;29.10
79645;BME280;69117;47.148;18.954;2023-06-14T13:14:54;100379.66;;;29.35;26.75
79645;BME280;69117;47.148;18.954;2023-06-14T13:17:55;100382.34;;;29.14;25.23
79645;BME280;69117;47.148;18.954;2023-06-14T13:20:57;100383.22;;;29.45;24.22
79645;BME280;69117;47.148;18.954;2023-06-14T13:23:59;100385.38;;;28.70;26.35
79645;BME280;69117;47.148;18.954;2023-06-14T13:27:01;100376.91;;;27.60;25.91
79645;BME280;69117;47.148;18.954;2023-06-14T13:30:03;100381.53;;;27.92;27.86
79645;BME280;69117;47.148;18.954;2023-06-14T13:33:06;100370.78;;;27.75;29.83
79645;BME280;69117;47.148;18.954;2023-06-14T13:36:08;100381.03;;;27.68;28.25
79645;BME280;69117;47.148;18.954;2023-06-14T13:39:10;100378.31;;;27.40;31.50
79645;BME280;69117;47.148;18.954;2023-06-14T13:42:12;100384.38;;;27.48;31.68
79645;BME280;69117;47.148;18.954;2023-06-14T13:45:15;100369.22;;;27.08;32.80
79645;BME280;69117;47.148;18.954;2023-06-14T13:48:16;100370.91;;;27.14;30.11
79645;BME280;69117;47.148;18.954;2023-06-14T13:51:18;100379.47;;;27.50;31.32
79645;BME280;69117;47.148;18.954;2023-06-14T13:54:20;100364.44;;;27.64;33.25
79645;BME280;69117;47.148;18.954;2023-06-14T13:57:22;100371.81;;;26.76;32.82
79645;BME280;69117;47.148;18.954;2023-06-14T14:00:24;100368.16;;;27.31;34.96
79645;BME280;69117;47.148;18.954;2023-06-14T14:03:26;100367.66;;;28.20;34.58
79645;BME280;69117;47.148;18.954;2023-06-14T14:06:28;100367.44;;;27.95;33.76
79645;BME280;69117;47.148;18.954;2023-06-14T14:09:30;100374.03;;;27.72;35.00
79645;BME280;69117;47.148;18.954;2023-06-14T14:12:31;100370.97;;;26.19;34.25
79645;BME280;69117;47.148;18.954;2023-06-14T14:15:33;100369.59;;;26.00;39.71
79645;BME280;69117;47.148;18.954;2023-06-14T14:18:36;100372.22;;;25.49;40.21
79645;BME280;69117;47.148;18.954;2023-06-14T14:21:39;100379.50;;;25.20;41.34
79645;BME280;69117;47.148;18.954;2023-06-14T14:24:40;100375.81;;;24.86;40.50
79645;BME280;69117;47.148;18.954;2023-06-14T14:27:42;100369.91;;;24.89;42.41
79645;BME280;69117;47.148;18.954;2023-06-14T14:30:44;100375.72;;;24.69;40.54
79645;BME280;69117;47.148;18.954;2023-06-14T14:33:46;100379.00;;;24.36;43.10
79645;BME280;69117;47.148;18.954;2023-06-14T14:36:47;100381.44;;;24.14;44.12
79645;BME280;69117;47.148;18.954;2023-06-14T14:39:49;100371.78;;;23.83;43.34
79645;BME280;69117;47.148;18.954;2023-06-14T14:42:51;100370.81;;;23.47;40.87
79645;BME280;69117;47.148;18.954;2023-06-14T14:45:52;100384.19;;;23.23;41.40
79645;BME280;69117;47.148;18.954;2023-06-14T14:48:54;100377.31;;;23.09;42.57
79645;BME280;69117;47.148;18.954;2023-06-14T14:51:56;100387.78;;;22.99;47.46
79645;BME280;69117;47.148;18.954;2023-06-14T14:55:06;100378.06;;;22.79;46.95
79645;BME280;69117;47.148;18.954;2023-06-14T14:58:08;100377.16;;;22.42;44.96
79645;BME280;69117;47.148;18.954;2023-06-14T15:01:09;100377.78;;;22.44;47.20
79645;BME280;69117;47.148;18.954;2023-06-14T15:04:12;100380.53;;;22.37;48.15
79645;BME280;69117;47.148;18.954;2023-06-14T15:07:14;100366.81;;;22.21;46.75
79645;BME280;69117;47.148;18.954;2023-06-14T15:10:16;100361.13;;;22.04;46.66
79645;BME280;69117;47.148;18.954;2023-06-14T15:13:18;100367.09;;;22.06;50.02
79645;BME280;69117;47.148;18.954;2023-06-14T15:16:20;100365.22;;;21.88;48.35
79645;BME280;69117;47.148;18.954;2023-06-14T15:19:21;100375.53;;;21.91;49.41
79645;BME280;69117;47.148;18.954;2023-06-14T15:22:23;100353.44;;;21.82;49.32
79645;BME280;69117;47.148;18.954;2023-06-14T15:25:29;100360.03;;;22.11;50.42
79645;BME280;69117;47.148;18.954;2023-06-14T15:28:31;100365.66;;;22.10;51.98
79645;BME280;69117;47.148;18.954;2023-06-14T15:31:34;100361.09;;;22.10;49.37
79645;BME280;69117;47.148;18.954;2023-06-14T15:34:35;100365.22;;;21.81;48.31
79645;BME280;69117;47.148;18.954;2023-06-14T15:37:39;100358.47;;;21.72;49.71
79645;BME280;69117;47.148;18.954;2023-06-14T15:40:40;100360.72;;;21.75;51.02
79645;BME280;69117;47.148;18.954;2023-06-14T15:43:42;100366.91;;;21.82;49.62
79645;BME280;69117;47.148;18.954;2023-06-14T15:46:44;100368.78;;;21.82;48.74
79645;BME280;69117;47.148;18.954;2023-06-14T15:49:46;100357.88;;;21.70;48.55
79645;BME280;69117;47.148;18.954;2023-06-14T15:52:47;100365.75;;;21.65;48.98
79645;BME280;69117;47.148;18.954;2023-06-14T15:55:52;100362.63;;;21.68;50.18